sensor_id;sensor_type;location;lat;lon;timestamp;pressure;altitude;pressure_sealevel;temperature;humidity
35224;BME280;21367;51.930;8.112;2023-04-05T00:03:03;101862.00;;;3.73;66.46
35224;BME280;21367;51.930;8.112;2023-04-05T00:08:09;101842.88;;;3.58;66.53
35224;BME280;21367;51.930;8.112;2023-04-05T00:13:20;101849.41;;;3.45;66.68
35224;BME280;21367;51.930;8.112;2023-04-05T00:18:25;101855.88;;;3.42;66.82
35224;BME280;21367;51.930;8.112;2023-04-05T00:23:33;101849.97;;;3.33;67.35
35224;BME280;21367;51.930;8.112;2023-04-05T00:28:44;101849.81;;;3.12;67.65
35224;BME280;21367;51.930;8.112;2023-04-05T00:33:48;101839.44;;;3.00;67.80
35224;BME280;21367;51.930;8.112;2023-04-05T00:38:53;101838.69;;;3.01;67.79
35224;BME280;21367;51.930;8.112;2023-04-05T00:44:00;101839.63;;;2.93;67.85
35224;BME280;21367;51.930;8.112;2023-04-05T00:49:05;101832.72;;;2.82;68.19
35224;BME280;21367;51.930;8.112;2023-04-05T00:54:10;101825.56;;;2.78;67.92
35224;BME280;21367;51.930;8.112;2023-04-05T00:59:18;101821.44;;;2.70;68.31
35224;BME280;21367;51.930;8.112;2023-04-05T01:04:24;101831.31;;;2.67;68.44
35224;BME280;21367;51.930;8.112;2023-04-05T01:09:39;101821.25;;;2.49;68.80
35224;BME280;21367;51.930;8.112;2023-04-05T01:14:52;101826.81;;;2.45;69.02
35224;BME280;21367;51.930;8.112;2023-04-05T01:19:59;101809.78;;;2.44;69.31
35224;BME280;21367;51.930;8.112;2023-04-05T01:25:36;101820.69;;;2.43;69.61
35224;BME280;21367;51.930;8.112;2023-04-05T01:31:00;101815.31;;;2.40;70.02
35224;BME280;21367;51.930;8.112;2023-04-05T01:36:13;101814.94;;;2.27;70.29
35224;BME280;21367;51.930;8.112;2023-04-05T01:41:18;101805.41;;;2.24;70.25
35224;BME280;21367;51.930;8.112;2023-04-05T01:46:27;101799.56;;;2.25;70.64
35224;BME280;21367;51.930;8.112;2023-04-05T01:51:31;101793.22;;;2.12;71.46
35224;BME280;21367;51.930;8.112;2023-04-05T01:56:35;101790.69;;;2.12;71.66
35224;BME280;21367;51.930;8.112;2023-04-05T02:01:41;101786.88;;;1.98;71.92
35224;BME280;21367;51.930;8.112;2023-04-05T02:06:45;101787.09;;;1.82;72.76
35224;BME280;21367;51.930;8.112;2023-04-05T02:11:49;101778.72;;;1.83;73.34
35224;BME280;21367;51.930;8.112;2023-04-05T02:16:57;101775.88;;;1.89;72.93
35224;BME280;21367;51.930;8.112;2023-04-05T02:22:02;101779.94;;;1.69;73.77
35224;BME280;21367;51.930;8.112;2023-04-05T02:27:06;101777.00;;;1.65;74.32
35224;BME280;21367;51.930;8.112;2023-04-05T02:32:13;101770.28;;;1.65;74.42
35224;BME280;21367;51.930;8.112;2023-04-05T02:37:17;101769.56;;;1.66;74.76
35224;BME280;21367;51.930;8.112;2023-04-05T02:42:21;101773.28;;;1.52;75.04
35224;BME280;21367;51.930;8.112;2023-04-05T02:47:28;101775.66;;;1.59;74.60
35224;BME280;21367;51.930;8.112;2023-04-05T02:52:34;101769.72;;;1.50;74.47
35224;BME280;21367;51.930;8.112;2023-04-05T02:57:38;101771.34;;;1.50;74.39
35224;BME280;21367;51.930;8.112;2023-04-05T03:02:59;101772.25;;;1.50;74.46
35224;BME280;21367;51.930;8.112;2023-04-05T03:08:03;101774.38;;;1.37;75.41
35224;BME280;21367;51.930;8.112;2023-04-05T03:13:07;101775.25;;;1.46;75.40
35224;BME280;21367;51.930;8.112;2023-04-05T03:18:15;101772.59;;;1.36;74.71
35224;BME280;21367;51.930;8.112;2023-04-05T03:23:22;101762.91;;;1.32;74.62
35224;BME280;21367;51.930;8.112;2023-04-05T03:28:29;101757.84;;;1.32;74.73
35224;BME280;21367;51.930;8.112;2023-04-05T03:33:43;101758.44;;;1.29;74.48
35224;BME280;21367;51.930;8.112;2023-04-05T03:38:47;101760.38;;;1.32;74.29
35224;BME280;21367;51.930;8.112;2023-04-05T03:43:54;101760.81;;;1.28;74.65
35224;BME280;21367;51.930;8.112;2023-04-05T03:49:01;101756.22;;;1.24;74.55
35224;BME280;21367;51.930;8.112;2023-04-05T03:54:07;101750.69;;;1.19;74.34
35224;BME280;21367;51.930;8.112;2023-04-05T03:59:12;101743.25;;;1.29;73.75
35224;BME280;21367;51.930;8.112;2023-04-05T04:04:19;101738.19;;;1.12;74.62
35224;BME280;21367;51.930;8.112;2023-04-05T04:09:23;101736.25;;;1.18;74.24
35224;BME280;21367;51.930;8.112;2023-04-05T04:14:28;101747.13;;;1.08;74.42
35224;BME280;21367;51.930;8.112;2023-04-05T04:19:51;101742.38;;;1.11;74.75
35224;BME280;21367;51.930;8.112;2023-04-05T04:25:27;101746.56;;;1.11;74.49
35224;BME280;21367;51.930;8.112;2023-04-05T04:30:50;101745.97;;;1.05;74.30
35224;BME280;21367;51.930;8.112;2023-04-05T04:36:16;101742.06;;;1.00;74.39
35224;BME280;21367;51.930;8.112;2023-04-05T04:41:47;101743.13;;;1.02;74.97
35224;BME280;21367;51.930;8.112;2023-04-05T04:47:22;101739.28;;;0.79;75.35
35224;BME280;21367;51.930;8.112;2023-04-05T04:52:55;101741.63;;;0.78;76.00
35224;BME280;21367;51.930;8.112;2023-04-05T04:58:01;101740.47;;;0.83;76.05
35224;BME280;21367;51.930;8.112;2023-04-05T05:03:10;101741.22;;;0.82;76.12
35224;BME280;21367;51.930;8.112;2023-04-05T05:08:17;101745.19;;;0.62;76.17
35224;BME280;21367;51.930;8.112;2023-04-05T05:13:21;101741.50;;;0.67;76.66
35224;BME280;21367;51.930;8.112;2023-04-05T05:18:25;101750.09;;;0.52;76.74
35224;BME280;21367;51.930;8.112;2023-04-05T05:23:32;101750.25;;;0.71;76.74
35224;BME280;21367;51.930;8.112;2023-04-05T05:28:37;101747.28;;;0.75;76.63
35224;BME280;21367;51.930;8.112;2023-04-05T05:33:41;101744.31;;;0.71;76.64
35224;BME280;21367;51.930;8.112;2023-04-05T05:38:48;101741.47;;;0.59;77.26
35224;BME280;21367;51.930;8.112;2023-04-05T05:43:52;101740.59;;;0.84;76.68
35224;BME280;21367;51.930;8.112;2023-04-05T05:48:56;101743.00;;;0.83;75.75
35224;BME280;21367;51.930;8.112;2023-04-05T05:54:03;101746.25;;;0.73;76.53
35224;BME280;21367;51.930;8.112;2023-04-05T05:59:07;101742.25;;;0.92;76.31
35224;BME280;21367;51.930;8.112;2023-04-05T06:04:11;101746.13;;;0.98;76.47
35224;BME280;21367;51.930;8.112;2023-04-05T06:09:18;101748.03;;;0.74;76.35
35224;BME280;21367;51.930;8.112;2023-04-05T06:14:23;101737.00;;;1.17;75.89
35224;BME280;21367;51.930;8.112;2023-04-05T06:19:28;101739.53;;;1.00;75.47
35224;BME280;21367;51.930;8.112;2023-04-05T06:24:35;101746.09;;;1.24;75.15
35224;BME280;21367;51.930;8.112;2023-04-05T06:29:39;101745.38;;;1.16;74.87
35224;BME280;21367;51.930;8.112;2023-04-05T06:34:43;101732.78;;;1.44;74.68
35224;BME280;21367;51.930;8.112;2023-04-05T06:39:51;101743.41;;;0.61;76.83
35224;BME280;21367;51.930;8.112;2023-04-05T06:44:54;101745.50;;;1.00;76.46
35224;BME280;21367;51.930;8.112;2023-04-05T06:49:58;101740.28;;;0.81;77.33
35224;BME280;21367;51.930;8.112;2023-04-05T06:55:05;101742.41;;;0.85;77.32
35224;BME280;21367;51.930;8.112;2023-04-05T07:00:12;101734.34;;;0.89;77.88
35224;BME280;21367;51.930;8.112;2023-04-05T07:05:15;101730.19;;;1.16;77.80
35224;BME280;21367;51.930;8.112;2023-04-05T07:10:23;101729.34;;;1.52;76.82
35224;BME280;21367;51.930;8.112;2023-04-05T07:15:27;101727.38;;;1.67;75.46
35224;BME280;21367;51.930;8.112;2023-04-05T07:20:31;101725.19;;;1.89;76.32
35224;BME280;21367;51.930;8.112;2023-04-05T07:25:38;101720.94;;;2.25;74.46
35224;BME280;21367;51.930;8.112;2023-04-05T07:30:42;101716.91;;;2.27;73.25
35224;BME280;21367;51.930;8.112;2023-04-05T07:35:50;101721.22;;;2.28;74.86
35224;BME280;21367;51.930;8.112;2023-04-05T07:40:58;101718.22;;;2.79;72.65
35224;BME280;21367;51.930;8.112;2023-04-05T07:46:03;101710.16;;;2.93;73.33
35224;BME280;21367;51.930;8.112;2023-04-05T07:51:08;101719.94;;;2.70;74.30
35224;BME280;21367;51.930;8.112;2023-04-05T07:56:30;101712.19;;;2.97;73.22
35224;BME280;21367;51.930;8.112;2023-04-05T08:01:34;101725.94;;;3.29;72.84
35224;BME280;21367;51.930;8.112;2023-04-05T08:06:49;101719.13;;;3.67;70.87
35224;BME280;21367;51.930;8.112;2023-04-05T08:11:56;101714.81;;;3.76;70.73
35224;BME280;21367;51.930;8.112;2023-04-05T08:17:00;101710.50;;;3.85;68.73
35224;BME280;21367;51.930;8.112;2023-04-05T08:22:03;101705.47;;;4.26;69.85
35224;BME280;21367;51.930;8.112;2023-04-05T08:27:09;101695.66;;;4.10;69.65
35224;BME280;21367;51.930;8.112;2023-04-05T08:32:13;101704.19;;;4.52;69.06
35224;BME280;21367;51.930;8.112;2023-04-05T08:37:17;101700.88;;;4.53;69.26
35224;BME280;21367;51.930;8.112;2023-04-05T08:42:28;101697.22;;;4.92;67.96
35224;BME280;21367;51.930;8.112;2023-04-05T08:47:36;101703.88;;;5.22;68.30
35224;BME280;21367;51.930;8.112;2023-04-05T08:52:44;101701.09;;;5.19;65.91
35224;BME280;21367;51.930;8.112;2023-04-05T08:57:55;101708.25;;;5.67;66.01
35224;BME280;21367;51.930;8.112;2023-04-05T09:03:04;101699.94;;;5.91;62.62
35224;BME280;21367;51.930;8.112;2023-04-05T09:08:08;101709.84;;;6.20;61.94
35224;BME280;21367;51.930;8.112;2023-04-05T09:13:15;101705.50;;;6.53;61.61
35224;BME280;21367;51.930;8.112;2023-04-05T09:18:18;101699.09;;;6.58;61.20
35224;BME280;21367;51.930;8.112;2023-04-05T09:23:22;101690.50;;;6.58;59.12
35224;BME280;21367;51.930;8.112;2023-04-05T09:28:43;101690.31;;;6.90;57.75
35224;BME280;21367;51.930;8.112;2023-04-05T09:33:47;101688.19;;;6.49;58.54
35224;BME280;21367;51.930;8.112;2023-04-05T09:38:51;101677.63;;;7.15;59.24
35224;BME280;21367;51.930;8.112;2023-04-05T09:43:58;101683.94;;;7.32;58.77
35224;BME280;21367;51.930;8.112;2023-04-05T09:49:02;101666.47;;;7.75;58.03
35224;BME280;21367;51.930;8.112;2023-04-05T09:54:09;101668.81;;;7.72;56.17
35224;BME280;21367;51.930;8.112;2023-04-05T09:59:15;101659.25;;;8.19;56.86
35224;BME280;21367;51.930;8.112;2023-04-05T10:04:19;101661.41;;;7.88;56.22
35224;BME280;21367;51.930;8.112;2023-04-05T10:09:23;101666.09;;;8.07;55.07
35224;BME280;21367;51.930;8.112;2023-04-05T10:14:29;101660.91;;;8.44;55.04
35224;BME280;21367;51.930;8.112;2023-04-05T10:19:39;101647.31;;;8.58;52.14
35224;BME280;21367;51.930;8.112;2023-04-05T10:24:50;101649.78;;;8.96;50.64
35224;BME280;21367;51.930;8.112;2023-04-05T10:30:02;101652.91;;;9.19;52.69
35224;BME280;21367;51.930;8.112;2023-04-05T10:35:12;101646.75;;;9.30;49.56
35224;BME280;21367;51.930;8.112;2023-04-05T10:40:19;101645.94;;;9.72;49.10
35224;BME280;21367;51.930;8.112;2023-04-05T10:45:27;101641.00;;;9.76;48.91
35224;BME280;21367;51.930;8.112;2023-04-05T10:50:31;101640.19;;;9.48;49.16
35224;BME280;21367;51.930;8.112;2023-04-05T10:55:37;101625.72;;;9.92;48.32
35224;BME280;21367;51.930;8.112;2023-04-05T11:00:44;101623.72;;;10.16;47.71
35224;BME280;21367;51.930;8.112;2023-04-05T11:05:48;101628.06;;;10.61;47.78
35224;BME280;21367;51.930;8.112;2023-04-05T11:10:52;101612.63;;;10.17;48.98
35224;BME280;21367;51.930;8.112;2023-04-05T11:16:10;101609.50;;;11.13;45.36
35224;BME280;21367;51.930;8.112;2023-04-05T11:21:21;101612.09;;;10.23;48.58
35224;BME280;21367;51.930;8.112;2023-04-05T11:26:30;101604.09;;;10.31;46.33
35224;BME280;21367;51.930;8.112;2023-04-05T11:31:56;101598.31;;;10.50;47.24
35224;BME280;21367;51.930;8.112;2023-04-05T11:37:00;101586.50;;;11.65;47.36
35224;BME280;21367;51.930;8.112;2023-04-05T11:42:04;101579.84;;;12.19;43.27
35224;BME280;21367;51.930;8.112;2023-04-05T11:47:11;101584.34;;;11.89;45.25
35224;BME280;21367;51.930;8.112;2023-04-05T11:52:16;101571.72;;;13.01;40.34
35224;BME280;21367;51.930;8.112;2023-04-05T11:57:22;101571.47;;;13.73;40.19
35224;BME280;21367;51.930;8.112;2023-04-05T12:02:33;101566.06;;;13.87;40.47
35224;BME280;21367;51.930;8.112;2023-04-05T12:07:37;101564.19;;;11.98;43.93
35224;BME280;21367;51.930;8.112;2023-04-05T12:12:42;101558.09;;;13.42;39.73
35224;BME280;21367;51.930;8.112;2023-04-05T12:17:51;101546.22;;;15.41;38.40
35224;BME280;21367;51.930;8.112;2023-04-05T12:22:56;101534.47;;;16.00;36.69
35224;BME280;21367;51.930;8.112;2023-04-05T12:28:03;101543.69;;;14.30;39.83
35224;BME280;21367;51.930;8.112;2023-04-05T12:33:11;101531.34;;;14.23;40.50
35224;BME280;21367;51.930;8.112;2023-04-05T12:38:14;101528.47;;;16.28;37.46
35224;BME280;21367;51.930;8.112;2023-04-05T12:43:18;101533.81;;;15.32;40.36
35224;BME280;21367;51.930;8.112;2023-04-05T12:48:24;101525.47;;;14.93;37.34
35224;BME280;21367;51.930;8.112;2023-04-05T12:53:28;101509.59;;;14.84;38.80
35224;BME280;21367;51.930;8.112;2023-04-05T12:58:34;101511.84;;;14.10;40.20
35224;BME280;21367;51.930;8.112;2023-04-05T13:03:42;101507.31;;;14.69;41.37
35224;BME280;21367;51.930;8.112;2023-04-05T13:08:46;101501.91;;;12.43;40.64
35224;BME280;21367;51.930;8.112;2023-04-05T13:13:50;101502.78;;;15.10;36.23
35224;BME280;21367;51.930;8.112;2023-04-05T13:18:56;101492.38;;;15.82;36.85
35224;BME280;21367;51.930;8.112;2023-04-05T13:23:59;101494.91;;;14.17;39.10
35224;BME280;21367;51.930;8.112;2023-04-05T13:29:03;101489.19;;;12.83;40.93
35224;BME280;21367;51.930;8.112;2023-04-05T13:34:10;101479.00;;;13.06;39.27
35224;BME280;21367;51.930;8.112;2023-04-05T13:39:14;101480.66;;;13.04;40.45
35224;BME280;21367;51.930;8.112;2023-04-05T13:44:17;101467.94;;;13.68;38.21
35224;BME280;21367;51.930;8.112;2023-04-05T13:49:24;101455.31;;;15.09;35.45
35224;BME280;21367;51.930;8.112;2023-04-05T13:54:27;101450.38;;;15.92;38.42
35224;BME280;21367;51.930;8.112;2023-04-05T13:59:31;101450.38;;;15.92;36.50
35224;BME280;21367;51.930;8.112;2023-04-05T14:04:37;101452.94;;;15.41;37.17
35224;BME280;21367;51.930;8.112;2023-04-05T14:09:41;101447.53;;;15.84;37.17
35224;BME280;21367;51.930;8.112;2023-04-05T14:14:45;101446.47;;;14.35;39.98
35224;BME280;21367;51.930;8.112;2023-04-05T14:19:51;101443.22;;;13.33;39.48
35224;BME280;21367;51.930;8.112;2023-04-05T14:24:55;101434.16;;;13.84;39.64
35224;BME280;21367;51.930;8.112;2023-04-05T14:29:59;101440.41;;;13.69;38.51
35224;BME280;21367;51.930;8.112;2023-04-05T14:35:07;101424.97;;;13.49;37.69
35224;BME280;21367;51.930;8.112;2023-04-05T14:40:11;101423.28;;;12.15;39.68
35224;BME280;21367;51.930;8.112;2023-04-05T14:45:15;101412.31;;;12.95;39.83
35224;BME280;21367;51.930;8.112;2023-04-05T14:50:22;101407.53;;;13.64;39.89
35224;BME280;21367;51.930;8.112;2023-04-05T14:55:25;101405.13;;;15.06;43.17
35224;BME280;21367;51.930;8.112;2023-04-05T15:00:29;101397.50;;;16.74;39.75
35224;BME280;21367;51.930;8.112;2023-04-05T15:05:35;101390.34;;;16.67;35.83
35224;BME280;21367;51.930;8.112;2023-04-05T15:10:40;101395.69;;;15.84;36.33
35224;BME280;21367;51.930;8.112;2023-04-05T15:15:44;101389.38;;;16.03;36.39
35224;BME280;21367;51.930;8.112;2023-04-05T15:20:51;101381.69;;;14.77;37.82
35224;BME280;21367;51.930;8.112;2023-04-05T15:25:55;101382.50;;;16.94;34.48
35224;BME280;21367;51.930;8.112;2023-04-05T15:30:59;101377.72;;;16.78;33.84
35224;BME280;21367;51.930;8.112;2023-04-05T15:36:06;101376.22;;;17.89;32.71
35224;BME280;21367;51.930;8.112;2023-04-05T15:41:09;101359.00;;;16.59;34.60
35224;BME280;21367;51.930;8.112;2023-04-05T15:46:13;101359.69;;;18.26;32.71
35224;BME280;21367;51.930;8.112;2023-04-05T15:51:19;101360.00;;;18.00;31.84
35224;BME280;21367;51.930;8.112;2023-04-05T15:56:23;101349.72;;;18.91;30.55
35224;BME280;21367;51.930;8.112;2023-04-05T16:01:27;101357.31;;;17.61;33.33
35224;BME280;21367;51.930;8.112;2023-04-05T16:06:34;101344.41;;;18.85;33.13
35224;BME280;21367;51.930;8.112;2023-04-05T16:11:38;101348.78;;;18.44;34.77
35224;BME280;21367;51.930;8.112;2023-04-05T16:16:42;101340.47;;;18.63;32.06
35224;BME280;21367;51.930;8.112;2023-04-05T16:21:49;101347.56;;;19.17;31.03
35224;BME280;21367;51.930;8.112;2023-04-05T16:26:53;101346.22;;;16.97;34.35
35224;BME280;21367;51.930;8.112;2023-04-05T16:31:57;101333.88;;;19.29;32.25
35224;BME280;21367;51.930;8.112;2023-04-05T16:37:07;101331.91;;;19.16;32.21
35224;BME280;21367;51.930;8.112;2023-04-05T16:42:11;101326.81;;;18.73;31.91
35224;BME280;21367;51.930;8.112;2023-04-05T16:47:15;101335.41;;;17.50;33.50
35224;BME280;21367;51.930;8.112;2023-04-05T16:52:21;101337.22;;;16.83;33.04
35224;BME280;21367;51.930;8.112;2023-04-05T16:57:25;101340.78;;;15.69;34.00
35224;BME280;21367;51.930;8.112;2023-04-05T17:02:29;101337.91;;;14.59;35.85
35224;BME280;21367;51.930;8.112;2023-04-05T17:07:35;101335.06;;;14.29;36.04
35224;BME280;21367;51.930;8.112;2023-04-05T17:12:39;101341.22;;;10.99;38.52
35224;BME280;21367;51.930;8.112;2023-04-05T17:17:45;101340.75;;;11.24;39.95
35224;BME280;21367;51.930;8.112;2023-04-05T17:22:51;101334.06;;;10.76;42.47
35224;BME280;21367;51.930;8.112;2023-04-05T17:27:58;101330.06;;;12.43;41.40
35224;BME280;21367;51.930;8.112;2023-04-05T17:33:03;101326.25;;;12.16;41.03
35224;BME280;21367;51.930;8.112;2023-04-05T17:38:09;101331.69;;;11.67;42.17
35224;BME280;21367;51.930;8.112;2023-04-05T17:43:14;101323.00;;;11.29;41.86
35224;BME280;21367;51.930;8.112;2023-04-05T17:48:18;101325.69;;;11.50;43.55
35224;BME280;21367;51.930;8.112;2023-04-05T17:53:24;101321.88;;;11.24;42.66
35224;BME280;21367;51.930;8.112;2023-04-05T17:58:29;101325.66;;;10.96;43.96
35224;BME280;21367;51.930;8.112;2023-04-05T18:03:34;101326.25;;;10.74;44.26
35224;BME280;21367;51.930;8.112;2023-04-05T18:08:49;101331.47;;;10.43;45.20
35224;BME280;21367;51.930;8.112;2023-04-05T18:13:53;101333.16;;;10.26;45.64
35224;BME280;21367;51.930;8.112;2023-04-05T18:18:57;101336.25;;;10.04;46.89
35224;BME280;21367;51.930;8.112;2023-04-05T18:24:04;101348.25;;;9.89;47.36
35224;BME280;21367;51.930;8.112;2023-04-05T18:29:08;101351.41;;;9.39;47.95
35224;BME280;21367;51.930;8.112;2023-04-05T18:34:12;101362.13;;;9.17;48.75
35224;BME280;21367;51.930;8.112;2023-04-05T18:39:19;101360.09;;;9.11;49.26
35224;BME280;21367;51.930;8.112;2023-04-05T18:44:24;101357.69;;;8.85;50.17
35224;BME280;21367;51.930;8.112;2023-04-05T18:49:28;101364.03;;;8.76;51.11
35224;BME280;21367;51.930;8.112;2023-04-05T18:54:37;101364.34;;;8.68;50.96
35224;BME280;21367;51.930;8.112;2023-04-05T18:59:41;101365.88;;;8.09;51.40
35224;BME280;21367;51.930;8.112;2023-04-05T19:04:46;101364.63;;;7.89;52.69
35224;BME280;21367;51.930;8.112;2023-04-05T19:09:53;101370.75;;;7.65;51.54
35224;BME280;21367;51.930;8.112;2023-04-05T19:14:57;101371.25;;;7.59;52.61
35224;BME280;21367;51.930;8.112;2023-04-05T19:20:01;101381.56;;;7.61;53.08
35224;BME280;21367;51.930;8.112;2023-04-05T19:25:09;101376.75;;;7.01;52.52
35224;BME280;21367;51.930;8.112;2023-04-05T19:30:13;101377.22;;;6.95;53.21
35224;BME280;21367;51.930;8.112;2023-04-05T19:35:17;101382.63;;;7.51;53.44
35224;BME280;21367;51.930;8.112;2023-04-05T19:40:24;101382.63;;;7.38;53.93
35224;BME280;21367;51.930;8.112;2023-04-05T19:45:29;101367.75;;;7.19;54.53
35224;BME280;21367;51.930;8.112;2023-04-05T19:50:52;101374.22;;;7.14;53.95
35224;BME280;21367;51.930;8.112;2023-04-05T19:56:00;101372.53;;;7.14;54.17
35224;BME280;21367;51.930;8.112;2023-04-05T20:01:05;101364.56;;;7.10;53.76
35224;BME280;21367;51.930;8.112;2023-04-05T20:06:10;101366.63;;;7.02;54.17
35224;BME280;21367;51.930;8.112;2023-04-05T20:16:53;101369.31;;;6.79;54.69
35224;BME280;21367;51.930;8.112;2023-04-05T20:21:59;101362.47;;;6.41;55.85
35224;BME280;21367;51.930;8.112;2023-04-05T20:27:04;101368.41;;;6.53;56.16
35224;BME280;21367;51.930;8.112;2023-04-05T20:32:10;101359.13;;;6.42;57.15
35224;BME280;21367;51.930;8.112;2023-04-05T20:37:15;101360.94;;;6.31;57.28
35224;BME280;21367;51.930;8.112;2023-04-05T20:42:18;101362.19;;;6.24;57.62
35224;BME280;21367;51.930;8.112;2023-04-05T20:47:25;101352.22;;;6.16;57.97
35224;BME280;21367;51.930;8.112;2023-04-05T20:52:29;101349.38;;;5.99;58.98
35224;BME280;21367;51.930;8.112;2023-04-05T20:57:33;101350.13;;;5.75;59.38
35224;BME280;21367;51.930;8.112;2023-04-05T21:02:39;101351.38;;;5.68;60.27
35224;BME280;21367;51.930;8.112;2023-04-05T21:07:43;101347.38;;;5.60;60.19
35224;BME280;21367;51.930;8.112;2023-04-05T21:12:47;101352.59;;;5.50;60.46
35224;BME280;21367;51.930;8.112;2023-04-05T21:17:53;101343.94;;;5.48;60.72
35224;BME280;21367;51.930;8.112;2023-04-05T21:22:57;101348.81;;;5.21;60.94
35224;BME280;21367;51.930;8.112;2023-04-05T21:28:03;101341.81;;;5.19;60.85
35224;BME280;21367;51.930;8.112;2023-04-05T21:33:09;101344.09;;;5.04;60.74
35224;BME280;21367;51.930;8.112;2023-04-05T21:38:13;101347.09;;;5.10;60.86
35224;BME280;21367;51.930;8.112;2023-04-05T21:43:18;101346.88;;;5.07;61.03
35224;BME280;21367;51.930;8.112;2023-04-05T21:48:24;101341.78;;;4.95;61.17
35224;BME280;21367;51.930;8.112;2023-04-05T21:53:28;101339.25;;;4.95;61.19
35224;BME280;21367;51.930;8.112;2023-04-05T21:58:32;101327.91;;;4.80;61.43
35224;BME280;21367;51.930;8.112;2023-04-05T22:03:39;101334.28;;;4.75;61.63
35224;BME280;21367;51.930;8.112;2023-04-05T22:08:42;101334.06;;;4.72;61.34
35224;BME280;21367;51.930;8.112;2023-04-05T22:13:46;101328.50;;;4.66;61.16
35224;BME280;21367;51.930;8.112;2023-04-05T22:18:53;101330.50;;;4.58;61.85
35224;BME280;21367;51.930;8.112;2023-04-05T22:23:57;101324.16;;;4.53;61.55
35224;BME280;21367;51.930;8.112;2023-04-05T22:29:01;101318.41;;;4.55;61.86
35224;BME280;21367;51.930;8.112;2023-04-05T22:34:08;101323.59;;;4.45;62.04
35224;BME280;21367;51.930;8.112;2023-04-05T22:39:13;101318.81;;;4.50;61.98
35224;BME280;21367;51.930;8.112;2023-04-05T22:44:17;101316.53;;;4.31;62.70
35224;BME280;21367;51.930;8.112;2023-04-05T22:49:24;101313.34;;;4.11;62.43
35224;BME280;21367;51.930;8.112;2023-04-05T22:54:29;101306.78;;;4.03;62.66
35224;BME280;21367;51.930;8.112;2023-04-05T22:59:33;101299.53;;;3.98;63.37
35224;BME280;21367;51.930;8.112;2023-04-05T23:04:39;101297.94;;;3.88;63.68
35224;BME280;21367;51.930;8.112;2023-04-05T23:09:43;101292.28;;;3.80;63.38
35224;BME280;21367;51.930;8.112;2023-04-05T23:14:47;101290.06;;;3.95;63.43
35224;BME280;21367;51.930;8.112;2023-04-05T23:19:54;101289.13;;;3.72;63.76
35224;BME280;21367;51.930;8.112;2023-04-05T23:24:58;101281.72;;;3.76;63.96
35224;BME280;21367;51.930;8.112;2023-04-05T23:30:03;101286.81;;;3.76;63.72
35224;BME280;21367;51.930;8.112;2023-04-05T23:35:10;101275.88;;;3.55;63.68
35224;BME280;21367;51.930;8.112;2023-04-05T23:40:15;101280.97;;;3.44;64.76
35224;BME280;21367;51.930;8.112;2023-04-05T23:45:19;101274.50;;;3.48;64.55
35224;BME280;21367;51.930;8.112;2023-04-05T23:50:27;101267.22;;;3.53;64.44
35224;BME280;21367;51.930;8.112;2023-04-05T23:55:31;101260.25;;;3.50;64.40
